Time;durP1;ratioP1;P1;durP2;ratioP2;P2;SDS_P1;SDS_P2;PMS_P1;PMS_P2;Temp;Humidity;BMP_temperature;BMP_pressure;BME280_temperature;BME280_humidity;BME280_pressure;Samples;Min_cycle;Max_cycle;Signal;HPM_P1;HPM_P2
2024/03/16 00:00:33;;;;;;;12.90;3.78;;;10.70;99.90;;;;;;5076214;28;20056;-69
2024/03/16 00:02:59;;;;;;;10.85;3.40;;;10.70;99.90;;;;;;5075983;28;20497;-68
2024/03/16 00:05:25;;;;;;;10.38;3.15;;;10.60;99.90;;;;;;5075811;28;20498;-68
2024/03/16 00:07:51;;;;;;;10.70;3.10;;;10.60;99.90;;;;;;5075887;28;20034;-68
2024/03/16 00:10:17;;;;;;;11.27;3.42;;;10.60;99.90;;;;;;5075755;28;20024;-68
2024/03/16 00:12:42;;;;;;;16.05;3.53;;;10.50;99.90;;;;;;5075967;28;20035;-68
2024/03/16 00:15:09;;;;;;;10.32;3.38;;;10.40;99.90;;;;;;5076015;28;20029;-68
2024/03/16 00:17:35;;;;;;;11.50;3.38;;;10.50;99.90;;;;;;5075956;28;20397;-69
2024/03/16 00:20:01;;;;;;;13.05;3.63;;;10.50;99.90;;;;;;5075924;28;20363;-68
2024/03/16 00:22:26;;;;;;;10.65;3.17;;;10.60;99.90;;;;;;5075633;28;20035;-68
2024/03/16 00:24:52;;;;;;;11.00;3.00;;;10.50;99.90;;;;;;5075588;28;20055;-68
2024/03/16 00:27:18;;;;;;;13.75;3.63;;;10.50;99.90;;;;;;5075769;28;20028;-68
2024/03/16 00:29:43;;;;;;;7.47;3.47;;;10.50;99.90;;;;;;5075596;28;20021;-68
2024/03/16 00:32:09;;;;;;;11.77;3.05;;;10.60;99.90;;;;;;5075602;28;20028;-68
2024/03/16 00:34:34;;;;;;;10.30;3.65;;;10.60;99.90;;;;;;5075685;28;20025;-68
2024/03/16 00:37:04;;;;;;;15.95;3.65;;;10.60;99.90;;;;;;5075496;28;20036;-68
2024/03/16 00:39:30;;;;;;;14.18;3.58;;;10.60;99.90;;;;;;5075436;28;20035;-68
2024/03/16 00:41:58;;;;;;;12.45;3.30;;;10.60;99.90;;;;;;5075306;28;20032;-68
2024/03/16 00:44:24;;;;;;;13.23;3.28;;;10.60;99.90;;;;;;5075042;28;20055;-68
2024/03/16 00:46:50;;;;;;;16.70;3.40;;;10.60;99.90;;;;;;5075275;28;20470;-68
2024/03/16 00:49:15;;;;;;;11.32;3.60;;;10.60;99.90;;;;;;5075222;28;20036;-68
2024/03/16 00:51:42;;;;;;;11.93;3.38;;;10.60;99.90;;;;;;5075140;28;20440;-68
2024/03/16 00:54:11;;;;;;;8.10;2.97;;;10.60;99.90;;;;;;5075156;28;20108;-68
2024/03/16 00:56:37;;;;;;;11.43;2.75;;;10.60;99.90;;;;;;5075260;28;20479;-68
2024/03/16 00:59:02;;;;;;;9.25;2.92;;;10.60;99.90;;;;;;5074999;28;20016;-68
2024/03/16 01:01:29;;;;;;;10.15;3.08;;;10.60;99.90;;;;;;5075103;28;20501;-68
2024/03/16 01:03:55;;;;;;;8.95;2.90;;;10.60;99.90;;;;;;5074791;28;20021;-68
2024/03/16 01:06:20;;;;;;;9.82;3.45;;;10.60;99.90;;;;;;5074860;28;20017;-68
2024/03/16 01:08:46;;;;;;;9.00;2.95;;;10.60;99.90;;;;;;5074620;28;20055;-68
2024/03/16 01:11:11;;;;;;;9.10;3.42;;;10.70;99.90;;;;;;5074776;28;20505;-67
2024/03/16 01:13:38;;;;;;;8.20;3.20;;;10.70;99.90;;;;;;5074835;28;20024;-67
2024/03/16 01:16:04;;;;;;;9.63;3.20;;;10.70;99.90;;;;;;5074602;28;20021;-67
2024/03/16 01:18:30;;;;;;;7.97;3.00;;;10.70;99.90;;;;;;5074563;28;20052;-67
2024/03/16 01:20:55;;;;;;;10.98;3.38;;;10.70;99.90;;;;;;5074523;28;20488;-67
2024/03/16 01:23:21;;;;;;;6.80;3.10;;;10.70;99.90;;;;;;5074683;28;20025;-67
2024/03/16 01:25:47;;;;;;;8.73;3.50;;;10.70;99.90;;;;;;5074379;28;20028;-67
2024/03/16 01:28:12;;;;;;;11.15;3.05;;;10.70;99.90;;;;;;5074513;28;20028;-68
2024/03/16 01:30:38;;;;;;;10.10;3.08;;;10.70;99.90;;;;;;5074373;28;20493;-68
2024/03/16 01:33:03;;;;;;;14.18;3.45;;;10.70;99.90;;;;;;5072946;28;20467;-68
2024/03/16 01:35:29;;;;;;;7.75;2.88;;;10.80;99.90;;;;;;5074168;28;20024;-68
2024/03/16 01:37:54;;;;;;;11.32;3.45;;;10.80;99.90;;;;;;5074176;28;20064;-68
2024/03/16 01:40:24;;;;;;;4.25;2.60;;;10.80;99.90;;;;;;5073953;28;20112;-68
2024/03/16 01:42:52;;;;;;;10.40;3.10;;;10.80;99.90;;;;;;5074363;28;20024;-68
2024/03/16 01:45:18;;;;;;;7.25;2.90;;;10.80;99.90;;;;;;5073926;28;20044;-68
2024/03/16 01:47:43;;;;;;;10.23;3.00;;;10.80;99.90;;;;;;5073994;28;20451;-68
2024/03/16 01:50:09;;;;;;;8.68;2.70;;;10.80;99.90;;;;;;5073343;28;20107;-69
2024/03/16 01:52:35;;;;;;;5.82;2.10;;;10.80;99.90;;;;;;5073919;28;20067;-69
2024/03/16 01:55:01;;;;;;;5.38;2.17;;;10.80;99.90;;;;;;5073839;28;20111;-68
2024/03/16 01:57:26;;;;;;;7.85;2.13;;;10.80;99.90;;;;;;5073819;28;20091;-69
2024/03/16 01:59:52;;;;;;;6.72;2.33;;;10.80;99.90;;;;;;5073848;28;20040;-68
2024/03/16 02:02:33;;;;;;;7.18;2.85;;;10.80;99.90;;;;;;5073764;28;20028;-68
2024/03/16 02:05:00;;;;;;;5.75;2.30;;;10.80;99.90;;;;;;5073719;28;20043;-69
2024/03/16 02:07:26;;;;;;;8.75;2.15;;;10.80;99.90;;;;;;5073658;28;20024;-69
2024/03/16 02:09:52;;;;;;;6.15;2.33;;;10.80;99.90;;;;;;5073762;28;20533;-68
2024/03/16 02:12:18;;;;;;;7.70;2.50;;;10.80;99.90;;;;;;5073688;28;20103;-69
2024/03/16 02:14:44;;;;;;;8.00;2.55;;;10.80;99.90;;;;;;5073411;28;20036;-69
2024/03/16 02:17:10;;;;;;;4.53;2.25;;;10.80;99.90;;;;;;5073669;28;20028;-68
2024/03/16 02:19:37;;;;;;;6.40;2.08;;;10.80;99.90;;;;;;5073467;28;20027;-68
2024/03/16 02:22:06;;;;;;;10.07;2.33;;;10.70;99.90;;;;;;5072071;28;20033;-69
2024/03/16 02:24:32;;;;;;;8.77;2.70;;;10.80;99.90;;;;;;5073638;28;20131;-69
2024/03/16 02:26:59;;;;;;;7.10;2.50;;;10.70;99.90;;;;;;5073336;28;20108;-69
2024/03/16 02:29:27;;;;;;;6.32;2.15;;;10.70;99.90;;;;;;5073649;28;20499;-68
2024/03/16 02:31:54;;;;;;;6.72;2.60;;;10.70;99.90;;;;;;5073253;28;20020;-68
2024/03/16 02:34:19;;;;;;;11.43;2.58;;;10.70;99.90;;;;;;5073672;28;20541;-68
2024/03/16 02:36:45;;;;;;;9.30;2.47;;;10.70;99.90;;;;;;5073508;28;20060;-68
2024/03/16 02:39:11;;;;;;;11.25;2.80;;;10.70;99.90;;;;;;5073443;28;20028;-67
2024/03/16 02:41:36;;;;;;;10.48;2.58;;;10.70;99.90;;;;;;5073589;28;20471;-67
2024/03/16 02:44:02;;;;;;;6.50;2.55;;;10.70;99.90;;;;;;5073448;28;20044;-68
2024/03/16 02:46:28;;;;;;;9.18;3.20;;;10.70;99.90;;;;;;5073698;28;20107;-68
2024/03/16 02:48:54;;;;;;;11.27;2.90;;;10.70;99.90;;;;;;5073195;28;20025;-68
2024/03/16 02:51:20;;;;;;;14.38;4.40;;;10.70;99.90;;;;;;5073167;28;20016;-68
2024/03/16 02:53:46;;;;;;;8.18;2.90;;;10.70;99.90;;;;;;5071894;28;20039;-68
2024/03/16 02:56:12;;;;;;;9.52;3.17;;;10.70;99.90;;;;;;5073255;28;20032;-68
2024/03/16 02:58:39;;;;;;;13.25;4.00;;;10.70;99.90;;;;;;5072973;28;20029;-68
2024/03/16 03:01:04;;;;;;;10.10;3.63;;;10.70;99.90;;;;;;5074684;28;20063;-68
2024/03/16 03:03:30;;;;;;;17.33;3.97;;;10.70;99.90;;;;;;5077188;28;20020;-68
2024/03/16 03:05:56;;;;;;;11.95;4.30;;;10.70;99.90;;;;;;5077105;28;20036;-68
2024/03/16 03:08:21;;;;;;;10.40;3.67;;;10.70;99.90;;;;;;5077148;28;20029;-68
2024/03/16 03:10:47;;;;;;;10.65;3.38;;;10.70;99.90;;;;;;5077131;28;20027;-68
2024/03/16 03:13:12;;;;;;;14.00;3.78;;;10.70;99.90;;;;;;5077041;28;20032;-68
2024/03/16 03:15:38;;;;;;;13.73;4.18;;;10.70;99.90;;;;;;5076910;28;20024;-68
2024/03/16 03:18:05;;;;;;;14.05;4.55;;;10.70;99.90;;;;;;5076746;28;20386;-68
2024/03/16 03:20:32;;;;;;;14.85;4.40;;;10.70;99.90;;;;;;5076848;28;20479;-68
2024/03/16 03:22:57;;;;;;;16.33;4.93;;;10.70;99.90;;;;;;5076798;28;20398;-68
2024/03/16 03:25:23;;;;;;;16.13;4.88;;;10.70;99.90;;;;;;5076754;28;20028;-68
2024/03/16 03:27:48;;;;;;;15.52;5.30;;;10.60;99.90;;;;;;5076684;28;20051;-68
2024/03/16 03:30:14;;;;;;;13.45;4.88;;;10.50;99.90;;;;;;5077062;28;20099;-68
2024/03/16 03:32:39;;;;;;;14.43;5.47;;;10.50;99.90;;;;;;5076699;28;20035;-68
2024/03/16 03:35:05;;;;;;;19.50;6.20;;;10.40;99.90;;;;;;5076545;28;20055;-68
2024/03/16 03:37:31;;;;;;;17.50;5.15;;;10.40;99.90;;;;;;5076548;28;20020;-68
2024/03/16 03:39:56;;;;;;;18.58;6.18;;;10.40;99.90;;;;;;5076468;28;20067;-68
2024/03/16 03:42:25;;;;;;;13.77;5.47;;;10.40;99.90;;;;;;5076443;28;20032;-68
2024/03/16 03:45:10;;;;;;;14.55;5.82;;;10.40;99.90;;;;;;5076063;28;20044;-68
2024/03/16 03:47:49;;;;;;;13.05;6.13;;;10.40;99.90;;;;;;5076529;28;20024;-68
2024/03/16 03:50:26;;;;;;;14.55;5.85;;;10.40;99.90;;;;;;5076142;28;20402;-68
2024/03/16 03:52:53;;;;;;;19.60;6.63;;;10.40;99.90;;;;;;5076444;28;20542;-68
2024/03/16 03:55:19;;;;;;;19.83;6.88;;;10.30;99.90;;;;;;5076237;28;20024;-68
2024/03/16 03:57:44;;;;;;;19.30;6.70;;;10.30;99.90;;;;;;5076292;28;20052;-68
2024/03/16 04:00:10;;;;;;;21.13;6.90;;;10.20;99.90;;;;;;5076437;28;20028;-68
2024/03/16 04:02:36;;;;;;;23.25;7.47;;;10.10;99.90;;;;;;5076043;28;20035;-67
2024/03/16 04:05:02;;;;;;;17.65;7.30;;;10.10;99.90;;;;;;5075933;28;20029;-68
2024/03/16 04:07:27;;;;;;;16.75;6.47;;;10.10;99.90;;;;;;5075901;28;20389;-68
2024/03/16 04:09:53;;;;;;;15.80;6.75;;;10.20;99.90;;;;;;5075973;28;20025;-68
2024/03/16 04:12:18;;;;;;;15.77;7.00;;;10.10;99.90;;;;;;5075142;28;20027;-67
2024/03/16 04:14:44;;;;;;;18.17;7.50;;;10.10;99.90;;;;;;5075723;28;20032;-68
2024/03/16 04:17:10;;;;;;;18.98;7.85;;;10.10;99.90;;;;;;5075945;28;20020;-67
2024/03/16 04:19:35;;;;;;;18.02;7.53;;;10.10;99.90;;;;;;5075690;28;20387;-68
2024/03/16 04:22:01;;;;;;;23.48;8.57;;;10.10;99.90;;;;;;5075706;28;20025;-68
2024/03/16 04:24:26;;;;;;;21.27;8.32;;;10.10;99.90;;;;;;5075714;28;20024;-67
2024/03/16 04:26:52;;;;;;;22.30;8.50;;;10.10;99.90;;;;;;5075699;28;20025;-68
2024/03/16 04:29:18;;;;;;;21.98;8.93;;;10.10;99.90;;;;;;5075462;28;20028;-68
2024/03/16 04:31:45;;;;;;;34.88;9.80;;;10.10;99.90;;;;;;5075660;28;20055;-68
2024/03/16 04:34:11;;;;;;;29.17;9.60;;;10.10;99.90;;;;;;5075597;28;20021;-68
2024/03/16 04:36:36;;;;;;;23.00;10.90;;;10.00;99.90;;;;;;5075927;28;20375;-68
2024/03/16 04:39:02;;;;;;;26.35;10.70;;;10.10;99.90;;;;;;5075416;28;20021;-67
2024/03/16 04:41:28;;;;;;;31.38;12.02;;;10.10;99.90;;;;;;5075567;28;20028;-68
2024/03/16 04:43:54;;;;;;;25.05;11.38;;;10.10;99.90;;;;;;5075700;28;20068;-68
2024/03/16 04:46:19;;;;;;;26.27;12.10;;;10.10;99.90;;;;;;5074930;28;20029;-68
2024/03/16 04:48:45;;;;;;;31.00;12.13;;;10.10;99.90;;;;;;5075299;28;20032;-68
2024/03/16 04:51:10;;;;;;;27.63;13.82;;;10.10;99.90;;;;;;5075257;28;20027;-68
2024/03/16 04:53:36;;;;;;;26.25;12.57;;;10.10;99.90;;;;;;5075102;28;20074;-68
2024/03/16 04:56:01;;;;;;;27.17;12.50;;;10.10;99.90;;;;;;5075284;28;20120;-68
2024/03/16 04:58:27;;;;;;;29.67;13.57;;;10.10;99.90;;;;;;5075052;28;20028;-68
2024/03/16 05:00:52;;;;;;;29.63;12.95;;;10.10;99.90;;;;;;5075018;28;20040;-68
2024/03/16 05:03:18;;;;;;;25.58;13.05;;;10.10;99.90;;;;;;5074996;28;20029;-68
2024/03/16 05:05:44;;;;;;;32.38;13.90;;;10.10;99.90;;;;;;5074947;28;20036;-68
2024/03/16 05:08:09;;;;;;;30.48;14.65;;;10.10;99.90;;;;;;5074765;28;20092;-68
2024/03/16 05:10:35;;;;;;;30.35;13.85;;;10.10;99.90;;;;;;5074793;28;20039;-68
2024/03/16 05:13:00;;;;;;;30.60;14.90;;;10.10;99.90;;;;;;5074714;28;20390;-68
2024/03/16 05:15:26;;;;;;;29.77;15.00;;;10.10;99.90;;;;;;5074724;28;20490;-68
2024/03/16 05:17:51;;;;;;;30.77;15.85;;;10.10;99.90;;;;;;5074528;28;20029;-68
2024/03/16 05:20:17;;;;;;;32.97;16.48;;;10.10;99.90;;;;;;5074777;28;20475;-68
2024/03/16 05:22:42;;;;;;;38.30;16.80;;;10.10;99.90;;;;;;5074869;28;20108;-68
2024/03/16 05:25:08;;;;;;;34.95;16.65;;;10.10;99.90;;;;;;5073118;28;20025;-68
2024/03/16 05:27:35;;;;;;;37.67;16.23;;;10.10;99.90;;;;;;5074318;28;20082;-68
2024/03/16 05:30:00;;;;;;;36.42;16.98;;;10.10;99.90;;;;;;5074624;28;20514;-68
2024/03/16 05:32:26;;;;;;;33.80;17.38;;;10.10;99.90;;;;;;5074519;28;20099;-68
2024/03/16 05:34:51;;;;;;;39.42;18.52;;;10.10;99.90;;;;;;5074501;28;20036;-68
2024/03/16 05:37:17;;;;;;;40.28;19.05;;;10.10;99.90;;;;;;5074249;28;20551;-68
2024/03/16 05:39:43;;;;;;;48.03;21.35;;;10.20;99.90;;;;;;5074383;28;20496;-68
2024/03/16 05:42:11;;;;;;;42.95;21.95;;;10.20;99.90;;;;;;5074077;28;20031;-68
2024/03/16 05:44:36;;;;;;;40.70;20.88;;;10.20;99.90;;;;;;5073783;28;20555;-68
2024/03/16 05:47:02;;;;;;;48.40;21.92;;;10.20;99.90;;;;;;5074211;28;20107;-67
2024/03/16 05:49:27;;;;;;;46.63;21.48;;;10.20;99.90;;;;;;5074010;28;20025;-68
2024/03/16 05:51:53;;;;;;;41.72;21.33;;;10.20;99.90;;;;;;5074128;28;20067;-68
2024/03/16 05:54:19;;;;;;;41.78;21.35;;;10.20;99.90;;;;;;5074085;28;20588;-68
2024/03/16 05:56:44;;;;;;;40.97;22.05;;;10.20;99.90;;;;;;5074025;28;20409;-68
2024/03/16 05:59:10;;;;;;;47.67;22.35;;;10.20;99.90;;;;;;5073733;28;20021;-68
2024/03/16 06:01:36;;;;;;;47.60;22.92;;;10.20;99.90;;;;;;5073773;28;20475;-68
2024/03/16 06:04:02;;;;;;;41.88;21.45;;;10.20;99.90;;;;;;5073740;28;20029;-68
2024/03/16 06:06:28;;;;;;;39.88;21.73;;;10.20;99.90;;;;;;5073573;28;20536;-68
2024/03/16 06:08:53;;;;;;;51.60;24.88;;;10.20;99.90;;;;;;5073508;28;20108;-67
2024/03/16 06:11:19;;;;;;;48.10;23.75;;;10.20;99.90;;;;;;5073687;28;20060;-68
2024/03/16 06:13:45;;;;;;;44.45;23.55;;;10.30;99.90;;;;;;5073710;28;20035;-68
2024/03/16 06:16:10;;;;;;;43.47;23.67;;;10.20;99.90;;;;;;5073753;28;20103;-68
2024/03/16 06:18:39;;;;;;;43.03;23.48;;;10.20;99.90;;;;;;5073477;28;20060;-68
2024/03/16 06:21:08;;;;;;;45.25;24.75;;;10.20;99.90;;;;;;5073590;28;20103;-68
2024/03/16 06:23:33;;;;;;;34.22;19.52;;;10.20;99.90;;;;;;5073682;28;20040;-68
2024/03/16 06:26:03;;;;;;;23.83;12.75;;;10.20;99.90;;;;;;5073564;28;20028;-68
2024/03/16 06:28:29;;;;;;;27.27;12.55;;;10.00;99.90;;;;;;5073306;28;20020;-67
2024/03/16 06:30:59;;;;;;;18.83;10.25;;;9.90;99.90;;;;;;5073411;28;20031;-67
2024/03/16 06:33:30;;;;;;;13.90;8.52;;;9.80;99.90;;;;;;5073033;28;20048;-67
2024/03/16 06:35:56;;;;;;;16.48;7.30;;;9.80;99.90;;;;;;5072754;28;20024;-67
2024/03/16 06:38:21;;;;;;;13.07;6.00;;;9.70;99.90;;;;;;5073392;28;20043;-67
2024/03/16 06:40:47;;;;;;;10.65;4.90;;;9.70;99.90;;;;;;5073095;28;20024;-67
2024/03/16 06:43:13;;;;;;;7.05;4.10;;;9.60;99.90;;;;;;5073293;28;20483;-67
2024/03/16 06:45:38;;;;;;;8.73;3.95;;;9.70;99.90;;;;;;5072891;28;20414;-67
2024/03/16 06:48:04;;;;;;;6.43;4.00;;;9.60;99.90;;;;;;5088941;28;20040;-67
2024/03/16 06:50:31;;;;;;;6.35;3.92;;;9.50;99.90;;;;;;5071961;28;20482;-68
2024/03/16 06:52:57;;;;;;;7.00;4.00;;;9.50;99.90;;;;;;5073152;28;20382;-67
2024/03/16 06:55:23;;;;;;;7.47;4.10;;;9.40;99.90;;;;;;5073288;28;20025;-68
2024/03/16 06:57:48;;;;;;;7.25;4.05;;;9.20;99.90;;;;;;5073280;28;20085;-67
2024/03/16 07:00:14;;;;;;;5.25;3.47;;;9.20;99.90;;;;;;5072867;28;20393;-67
2024/03/16 07:02:39;;;;;;;6.18;3.30;;;9.20;99.90;;;;;;5072920;28;20414;-67
2024/03/16 07:05:07;;;;;;;6.25;3.30;;;9.10;99.90;;;;;;5072857;28;20035;-68
2024/03/16 07:07:33;;;;;;;5.70;3.42;;;9.00;99.90;;;;;;5073053;28;20048;-68
2024/03/16 07:09:58;;;;;;;7.07;3.45;;;9.00;99.90;;;;;;5073028;28;20106;-68
2024/03/16 07:12:24;;;;;;;5.85;2.90;;;8.90;99.90;;;;;;5073009;28;20036;-68
2024/03/16 07:14:49;;;;;;;6.78;3.17;;;8.90;99.90;;;;;;5072859;28;20039;-68
2024/03/16 07:17:15;;;;;;;5.20;2.45;;;8.80;99.90;;;;;;5073024;28;20055;-68
2024/03/16 07:19:41;;;;;;;4.70;2.60;;;8.80;99.90;;;;;;5072822;28;20060;-68
2024/03/16 07:22:07;;;;;;;5.35;2.58;;;8.90;99.90;;;;;;5072839;28;20036;-68
2024/03/16 07:24:34;;;;;;;5.70;2.80;;;9.00;99.90;;;;;;5072916;28;20530;-68
2024/03/16 07:27:00;;;;;;;3.40;2.05;;;9.00;99.90;;;;;;5071655;28;20382;-68
2024/03/16 07:29:25;;;;;;;4.85;2.05;;;9.00;99.90;;;;;;5072990;28;20035;-68
2024/03/16 07:31:51;;;;;;;3.15;1.83;;;9.00;99.90;;;;;;5072965;28;20016;-68
2024/03/16 07:34:16;;;;;;;4.13;2.42;;;9.10;99.90;;;;;;5072673;28;20028;-69
2024/03/16 07:36:42;;;;;;;5.03;1.50;;;9.30;99.90;;;;;;5072639;28;20032;-68
2024/03/16 07:39:08;;;;;;;3.63;1.90;;;9.40;99.90;;;;;;5072643;28;20043;-68
2024/03/16 07:41:34;;;;;;;7.95;2.08;;;9.30;99.90;;;;;;5072652;28;20021;-68
2024/03/16 07:44:00;;;;;;;4.97;1.92;;;9.20;99.90;;;;;;5072376;28;20079;-68
2024/03/16 07:46:26;;;;;;;4.10;1.92;;;9.20;99.90;;;;;;5072549;28;20071;-68
2024/03/16 07:48:51;;;;;;;2.97;1.40;;;10.00;99.90;;;;;;5075216;28;20025;-68
2024/03/16 07:51:17;;;;;;;3.03;1.17;;;11.10;99.90;;;;;;5076367;28;20029;-68
2024/03/16 07:53:43;;;;;;;2.13;1.23;;;11.40;99.90;;;;;;5075976;28;20150;-68
2024/03/16 07:56:09;;;;;;;3.00;1.20;;;11.00;97.80;;;;;;5075965;28;20044;-69
2024/03/16 07:58:37;;;;;;;2.55;1.30;;;10.40;99.90;;;;;;5076066;28;20111;-68
2024/03/16 08:01:04;;;;;;;2.33;1.02;;;9.70;99.90;;;;;;5075980;28;20395;-68
2024/03/16 08:03:30;;;;;;;5.05;1.02;;;9.20;99.90;;;;;;5075959;28;20024;-68
2024/03/16 08:06:01;;;;;;;2.45;1.10;;;9.10;99.90;;;;;;5075955;28;20043;-68
2024/03/16 08:08:27;;;;;;;3.50;1.45;;;9.00;99.90;;;;;;5076108;28;20017;-68
2024/03/16 08:10:54;;;;;;;3.58;1.60;;;8.90;99.90;;;;;;5075852;28;20047;-68
2024/03/16 08:13:20;;;;;;;3.15;1.30;;;9.00;99.90;;;;;;5075734;28;20028;-68
2024/03/16 08:15:46;;;;;;;4.45;1.50;;;9.10;99.90;;;;;;5075936;28;20498;-69
2024/03/16 08:18:12;;;;;;;4.85;1.67;;;9.20;99.90;;;;;;5075650;28;20032;-68
2024/03/16 08:20:37;;;;;;;3.30;1.30;;;9.30;99.90;;;;;;5075864;28;20078;-68
2024/03/16 08:23:03;;;;;;;4.15;1.60;;;9.50;99.90;;;;;;5075775;28;20115;-68
2024/03/16 08:25:29;;;;;;;3.80;1.50;;;9.60;99.90;;;;;;5075576;28;20450;-68
2024/03/16 08:27:55;;;;;;;7.15;2.47;;;9.70;99.90;;;;;;5075762;28;20495;-68
2024/03/16 08:30:21;;;;;;;4.95;1.55;;;9.90;99.90;;;;;;5074393;28;20031;-68
2024/03/16 08:32:46;;;;;;;5.28;1.60;;;10.10;99.90;;;;;;5075488;28;20025;-67
2024/03/16 08:35:12;;;;;;;3.78;1.40;;;10.30;92.30;;;;;;5075360;28;20028;-68
2024/03/16 08:37:37;;;;;;;2.65;1.65;;;10.70;69.60;;;;;;5075552;28;20079;-68
2024/03/16 08:40:11;;;;;;;6.38;1.55;;;10.50;63.80;;;;;;5075568;28;20382;-68
2024/03/16 08:42:39;;;;;;;5.05;1.35;;;10.40;64.90;;;;;;5075258;28;20133;-68
2024/03/16 08:45:07;;;;;;;2.85;1.50;;;10.40;75.00;;;;;;5074973;28;20083;-68
2024/03/16 08:47:33;;;;;;;5.30;1.48;;;10.40;75.20;;;;;;5075234;28;20051;-68
2024/03/16 08:49:58;;;;;;;8.48;1.83;;;10.20;90.00;;;;;;5075218;28;20116;-68
2024/03/16 08:52:26;;;;;;;3.55;1.23;;;9.60;99.90;;;;;;5075163;28;20103;-68
2024/03/16 08:54:55;;;;;;;1.60;0.82;;;9.20;99.90;;;;;;5075279;28;20493;-68
2024/03/16 08:57:22;;;;;;;3.72;0.88;;;8.60;99.90;;;;;;5074853;28;20028;-68
2024/03/16 08:59:47;;;;;;;3.53;1.00;;;8.50;99.90;;;;;;5074784;28;20020;-68
2024/03/16 09:02:13;;;;;;;3.50;0.90;;;8.30;99.90;;;;;;5074851;28;20024;-68
2024/03/16 09:04:38;;;;;;;4.47;1.00;;;8.20;99.90;;;;;;5074890;28;20042;-68
2024/03/16 09:07:05;;;;;;;2.55;0.95;;;8.30;99.90;;;;;;5074790;28;20031;-68
2024/03/16 09:09:30;;;;;;;2.55;1.15;;;8.30;99.90;;;;;;5074993;28;20420;-68
2024/03/16 09:11:56;;;;;;;4.25;1.00;;;8.50;99.90;;;;;;5074759;28;20044;-68
2024/03/16 09:14:21;;;;;;;2.10;1.10;;;8.60;99.90;;;;;;5074765;28;20023;-68
2024/03/16 09:16:47;;;;;;;6.10;1.45;;;8.90;99.90;;;;;;5074606;28;20020;-68
2024/03/16 09:19:12;;;;;;;5.03;1.60;;;9.10;99.90;;;;;;5074501;28;20017;-68
2024/03/16 09:21:38;;;;;;;5.60;1.88;;;9.50;99.90;;;;;;5074231;28;20055;-68
2024/03/16 09:24:04;;;;;;;7.15;1.92;;;9.80;99.90;;;;;;5074376;28;20025;-68
2024/03/16 09:26:29;;;;;;;8.30;2.00;;;9.70;79.90;;;;;;5074365;28;20024;-68
2024/03/16 09:28:55;;;;;;;7.70;1.77;;;10.20;90.70;;;;;;5074402;28;20082;-68
2024/03/16 09:31:24;;;;;;;7.65;2.08;;;10.50;43.30;;;;;;5074305;28;20020;-68
2024/03/16 09:33:50;;;;;;;8.35;1.95;;;10.50;35.50;;;;;;5074079;28;20521;-68
2024/03/16 09:36:16;;;;;;;5.18;1.60;;;11.00;29.70;;;;;;5074055;28;20482;-69
2024/03/16 09:38:41;;;;;;;5.80;1.60;;;11.90;7.80;;;;;;5073887;28;20137;-68
2024/03/16 09:41:17;;;;;;;10.70;1.92;;;12.50;1.00;;;;;;5073943;28;20029;-69
2024/03/16 09:43:44;;;;;;;14.00;2.40;;;12.20;1.00;;;;;;5074001;28;20072;-69
2024/03/16 09:46:10;;;;;;;9.77;2.20;;;13.00;1.00;;;;;;5073887;28;20036;-69
2024/03/16 09:48:37;;;;;;;7.25;2.10;;;13.30;99.90;;;;;;5073821;28;20364;-69
2024/03/16 09:51:04;;;;;;;10.32;2.30;;;12.60;99.90;;;;;;5073607;28;20539;-69
2024/03/16 09:53:32;;;;;;;5.82;1.60;;;11.80;1.00;;;;;;5073819;28;20099;-69
2024/03/16 09:56:00;;;;;;;4.50;1.60;;;10.90;1.00;;;;;;5073740;28;20470;-69
2024/03/16 09:58:28;;;;;;;6.03;2.05;;;10.50;1.00;;;;;;5072759;28;20033;-68
2024/03/16 10:00:54;;;;;;;12.90;2.10;;;10.40;1.00;;;;;;5073745;28;20074;-68
2024/03/16 10:03:21;;;;;;;10.88;2.00;;;10.10;1.00;;;;;;5073695;28;20060;-68
2024/03/16 10:05:47;;;;;;;10.10;2.15;;;9.90;14.90;;;;;;5073448;28;20508;-69
2024/03/16 10:08:20;;;;;;;12.07;2.03;;;9.70;1.00;;;;;;5073686;28;20017;-68
2024/03/16 10:10:47;;;;;;;5.78;1.90;;;9.60;1.00;;;;;;5072080;28;20493;-68
2024/03/16 10:13:13;;;;;;;9.57;1.70;;;9.50;1.00;;;;;;5073513;28;20035;-68
2024/03/16 10:15:42;;;;;;;4.93;1.88;;;9.40;1.00;;;;;;5073414;28;20029;-68
2024/03/16 10:18:10;;;;;;;8.00;1.95;;;9.40;1.00;;;;;;5073622;28;20075;-68
2024/03/16 10:20:36;;;;;;;7.40;1.80;;;9.20;1.00;;;;;;5073349;28;20490;-68
2024/03/16 10:23:02;;;;;;;8.10;2.40;;;8.90;6.40;;;;;;5073323;28;20108;-68
2024/03/16 10:25:30;;;;;;;6.80;1.83;;;8.70;12.70;;;;;;5073242;28;20146;-68
2024/03/16 10:27:56;;;;;;;8.75;2.00;;;8.80;21.20;;;;;;5073499;28;20064;-68
2024/03/16 10:30:23;;;;;;;6.75;1.88;;;8.90;23.50;;;;;;5073328;28;20110;-68
2024/03/16 10:32:49;;;;;;;7.18;2.20;;;9.00;26.80;;;;;;5073562;28;20024;-68
2024/03/16 10:35:18;;;;;;;6.10;1.70;;;8.90;1.30;;;;;;5073542;28;20478;-68
2024/03/16 10:37:45;;;;;;;10.38;2.47;;;9.00;1.00;;;;;;5073217;28;20101;-68
2024/03/16 10:40:17;;;;;;;8.65;1.83;;;9.10;1.00;;;;;;5073157;28;20425;-68
2024/03/16 10:42:45;;;;;;;6.30;1.60;;;9.10;1.00;;;;;;5073134;28;20163;-68
2024/03/16 10:45:16;;;;;;;7.03;2.30;;;9.40;1.00;;;;;;5072724;28;20323;-68
2024/03/16 10:47:43;;;;;;;5.78;2.10;;;9.60;1.00;;;;;;5073084;28;20391;-69
2024/03/16 10:50:10;;;;;;;8.73;1.85;;;9.70;1.00;;;;;;5073012;28;20023;-68
2024/03/16 10:52:39;;;;;;;7.43;1.80;;;10.00;1.00;;;;;;5073048;28;20017;-68
2024/03/16 10:55:10;;;;;;;2.25;1.52;;;10.10;1.00;;;;;;5072880;28;20024;-68
2024/03/16 10:57:36;;;;;;;7.45;1.92;;;10.00;1.00;;;;;;5071636;28;20025;-68
2024/03/16 11:00:12;;;;;;;6.90;1.77;;;10.00;1.00;;;;;;5072856;28;20024;-68
2024/03/16 11:02:48;;;;;;;7.43;1.38;;;10.00;1.00;;;;;;5072799;28;20024;-68
2024/03/16 11:05:35;;;;;;;5.68;1.65;;;9.90;1.00;;;;;;5072625;28;20092;-68
2024/03/16 11:08:21;;;;;;;5.22;1.77;;;9.50;1.00;;;;;;5072817;28;20020;-68
2024/03/16 11:10:48;;;;;;;8.93;1.85;;;9.50;1.00;;;;;;5071653;28;20028;-68
2024/03/16 11:13:21;;;;;;;6.55;1.75;;;9.40;1.00;;;;;;5071546;28;20036;-68
2024/03/16 11:15:48;;;;;;;8.25;1.73;;;9.30;1.00;;;;;;5073056;28;20032;-68
2024/03/16 11:20:54;;;;;;;4.78;2.17;;;9.40;1.00;;;;;;5126998;27;20393;-68
2024/03/16 11:23:28;;;;;;;4.78;1.70;;;9.60;1.00;;;;;;5111130;28;20081;-68
2024/03/16 11:25:55;;;;;;;10.88;1.80;;;9.90;1.00;;;;;;5111346;28;20036;-68
2024/03/16 11:28:22;;;;;;;4.80;1.40;;;10.10;1.00;;;;;;5111034;28;20393;-68
2024/03/16 11:30:50;;;;;;;6.22;1.63;;;10.40;99.90;;;;;;5109934;28;20019;-68
2024/03/16 11:33:17;;;;;;;6.03;2.58;;;10.60;99.90;;;;;;5110758;28;20020;-68
2024/03/16 11:35:44;;;;;;;7.22;2.67;;;10.50;1.00;;;;;;5109547;28;20529;-68
2024/03/16 11:38:11;;;;;;;6.80;2.10;;;10.20;99.90;;;;;;5110656;28;20020;-68
2024/03/16 11:40:39;;;;;;;7.90;2.20;;;10.10;99.90;;;;;;5110498;28;20024;-68
2024/03/16 11:43:05;;;;;;;6.13;2.13;;;10.10;99.90;;;;;;5110411;28;20020;-68
2024/03/16 11:45:33;;;;;;;11.73;2.38;;;10.20;1.00;;;;;;5110670;28;20032;-68
2024/03/16 11:48:00;;;;;;;4.53;1.73;;;10.30;99.90;;;;;;5110612;28;20389;-68
2024/03/16 11:50:26;;;;;;;7.22;1.90;;;10.20;99.90;;;;;;5110488;28;20023;-68
2024/03/16 11:52:52;;;;;;;6.35;2.40;;;10.20;99.90;;;;;;5110494;28;20375;-68
2024/03/16 11:55:21;;;;;;;8.27;3.08;;;10.10;99.90;;;;;;5110435;28;20035;-68
2024/03/16 11:57:47;;;;;;;5.22;1.65;;;10.10;99.90;;;;;;5109287;28;20092;-68
2024/03/16 12:00:17;;;;;;;6.22;1.88;;;10.20;99.90;;;;;;5110111;28;20114;-68
2024/03/16 12:02:45;;;;;;;6.63;1.98;;;10.50;99.90;;;;;;5109276;28;20103;-68
2024/03/16 12:05:12;;;;;;;3.60;1.63;;;10.60;45.40;;;;;;5110090;28;20048;-68
2024/03/16 12:07:39;;;;;;;8.52;1.77;;;10.70;83.50;;;;;;5110014;28;20390;-68
2024/03/16 12:10:08;;;;;;;6.57;1.88;;;10.70;99.90;;;;;;5110025;28;20183;-68
2024/03/16 12:12:36;;;;;;;10.55;2.05;;;10.40;99.90;;;;;;5110084;28;20378;-68
2024/03/16 12:15:19;;;;;;;7.07;2.25;;;10.20;99.90;;;;;;5110010;28;20103;-68
2024/03/16 12:17:48;;;;;;;7.80;2.00;;;10.10;99.90;;;;;;5109952;28;20031;-68
2024/03/16 12:20:16;;;;;;;6.88;2.10;;;10.10;99.90;;;;;;5109509;28;20048;-68
2024/03/16 12:22:47;;;;;;;5.85;1.90;;;10.10;99.90;;;;;;5108664;28;20028;-68
2024/03/16 12:25:13;;;;;;;14.40;2.78;;;10.20;99.90;;;;;;5109803;28;20546;-68
2024/03/16 12:27:43;;;;;;;6.55;1.90;;;10.30;99.90;;;;;;5109787;28;20020;-68
2024/03/16 12:30:12;;;;;;;8.57;1.80;;;10.40;99.90;;;;;;5108358;28;20059;-68
2024/03/16 12:32:38;;;;;;;6.00;1.83;;;10.60;99.90;;;;;;5095838;28;20043;-68
2024/03/16 12:35:04;;;;;;;5.63;2.03;;;10.60;99.90;;;;;;5096079;28;20028;-68
2024/03/16 12:37:30;;;;;;;9.98;1.83;;;10.80;99.90;;;;;;5096021;28;20024;-68
2024/03/16 12:39:57;;;;;;;7.25;1.98;;;10.80;99.90;;;;;;5095901;28;20036;-68
2024/03/16 12:42:23;;;;;;;6.47;1.80;;;11.10;10.60;;;;;;5095969;28;20020;-68
2024/03/16 12:44:49;;;;;;;9.65;2.10;;;11.20;99.90;;;;;;5096003;28;20024;-68